sensor_id;sensor_type;location;lat;lon;timestamp;pressure;altitude;pressure_sealevel;temperature;humidity
3250;BME280;1637;42.020;23.992;2023-04-25T00:01:53;92096.53;;;9.62;100.00
3250;BME280;1637;42.020;23.992;2023-04-25T00:04:20;92094.75;;;9.56;100.00
3250;BME280;1637;42.020;23.992;2023-04-25T00:06:49;92094.97;;;9.65;100.00
3250;BME280;1637;42.020;23.992;2023-04-25T00:09:17;92093.72;;;9.70;100.00
3250;BME280;1637;42.020;23.992;2023-04-25T00:11:44;92096.34;;;9.73;100.00
3250;BME280;1637;42.020;23.992;2023-04-25T00:14:11;92100.94;;;9.73;100.00
3250;BME280;1637;42.020;23.992;2023-04-25T00:16:37;92089.25;;;9.83;100.00
3250;BME280;1637;42.020;23.992;2023-04-25T00:19:06;92088.25;;;9.77;100.00
3250;BME280;1637;42.020;23.992;2023-04-25T00:21:33;92088.72;;;9.72;100.00
3250;BME280;1637;42.020;23.992;2023-04-25T00:24:02;92090.06;;;9.60;100.00
3250;BME280;1637;42.020;23.992;2023-04-25T00:26:29;92090.72;;;9.68;100.00
3250;BME280;1637;42.020;23.992;2023-04-25T00:28:56;92092.56;;;9.71;100.00
3250;BME280;1637;42.020;23.992;2023-04-25T00:31:23;92095.09;;;9.78;100.00
3250;BME280;1637;42.020;23.992;2023-04-25T00:33:49;92094.47;;;9.90;100.00
3250;BME280;1637;42.020;23.992;2023-04-25T00:36:16;92094.72;;;10.15;100.00
3250;BME280;1637;42.020;23.992;2023-04-25T00:38:43;92082.03;;;10.19;100.00
3250;BME280;1637;42.020;23.992;2023-04-25T00:41:11;92078.88;;;10.24;100.00
3250;BME280;1637;42.020;23.992;2023-04-25T00:43:39;92084.50;;;10.30;100.00
3250;BME280;1637;42.020;23.992;2023-04-25T00:46:06;92076.22;;;10.41;100.00
3250;BME280;1637;42.020;23.992;2023-04-25T00:48:33;92072.63;;;10.31;100.00
3250;BME280;1637;42.020;23.992;2023-04-25T00:51:00;92070.69;;;10.31;100.00
3250;BME280;1637;42.020;23.992;2023-04-25T00:53:28;92072.63;;;10.31;100.00
3250;BME280;1637;42.020;23.992;2023-04-25T00:55:57;92038.81;;;10.01;100.00
3250;BME280;1637;42.020;23.992;2023-04-25T00:58:26;92060.56;;;10.03;100.00
3250;BME280;1637;42.020;23.992;2023-04-25T01:00:53;92062.25;;;9.97;100.00
3250;BME280;1637;42.020;23.992;2023-04-25T01:03:22;92065.09;;;10.06;100.00
3250;BME280;1637;42.020;23.992;2023-04-25T01:05:50;92058.94;;;9.89;100.00
3250;BME280;1637;42.020;23.992;2023-04-25T01:08:17;92056.72;;;10.04;100.00
3250;BME280;1637;42.020;23.992;2023-04-25T01:10:44;92061.31;;;10.04;100.00
3250;BME280;1637;42.020;23.992;2023-04-25T01:13:10;92053.56;;;10.09;100.00
3250;BME280;1637;42.020;23.992;2023-04-25T01:15:39;92054.53;;;9.99;100.00
3250;BME280;1637;42.020;23.992;2023-04-25T01:18:06;92054.69;;;9.92;100.00
3250;BME280;1637;42.020;23.992;2023-04-25T01:20:33;92057.38;;;9.92;100.00
3250;BME280;1637;42.020;23.992;2023-04-25T01:23:02;92049.31;;;9.76;100.00
3250;BME280;1637;42.020;23.992;2023-04-25T01:25:29;92052.25;;;9.61;100.00
3250;BME280;1637;42.020;23.992;2023-04-25T01:27:57;92041.81;;;9.67;100.00
3250;BME280;1637;42.020;23.992;2023-04-25T01:30:25;92048.69;;;9.48;100.00
3250;BME280;1637;42.020;23.992;2023-04-25T01:32:54;92030.66;;;9.52;100.00
3250;BME280;1637;42.020;23.992;2023-04-25T01:35:22;92044.22;;;9.22;100.00
3250;BME280;1637;42.020;23.992;2023-04-25T01:37:51;92040.66;;;9.48;100.00
3250;BME280;1637;42.020;23.992;2023-04-25T01:40:20;92027.31;;;9.48;100.00
3250;BME280;1637;42.020;23.992;2023-04-25T01:42:48;92034.28;;;9.42;100.00
3250;BME280;1637;42.020;23.992;2023-04-25T01:45:15;92040.19;;;9.53;100.00
3250;BME280;1637;42.020;23.992;2023-04-25T01:47:42;92031.47;;;9.69;100.00
3250;BME280;1637;42.020;23.992;2023-04-25T01:50:15;92022.91;;;9.58;100.00
3250;BME280;1637;42.020;23.992;2023-04-25T01:52:42;92028.66;;;9.76;100.00
3250;BME280;1637;42.020;23.992;2023-04-25T01:55:09;92033.66;;;9.74;100.00
3250;BME280;1637;42.020;23.992;2023-04-25T01:57:37;92029.22;;;9.68;100.00
3250;BME280;1637;42.020;23.992;2023-04-25T02:00:07;92018.44;;;9.71;100.00
3250;BME280;1637;42.020;23.992;2023-04-25T02:02:35;92017.25;;;9.56;100.00
3250;BME280;1637;42.020;23.992;2023-04-25T02:05:02;92023.66;;;9.39;100.00
3250;BME280;1637;42.020;23.992;2023-04-25T02:07:29;92021.69;;;9.23;100.00
3250;BME280;1637;42.020;23.992;2023-04-25T02:09:55;92023.19;;;9.24;100.00
3250;BME280;1637;42.020;23.992;2023-04-25T02:12:22;92022.91;;;9.38;100.00
3250;BME280;1637;42.020;23.992;2023-04-25T02:14:51;92021.34;;;9.21;100.00
3250;BME280;1637;42.020;23.992;2023-04-25T02:17:17;92017.72;;;9.31;100.00
3250;BME280;1637;42.020;23.992;2023-04-25T02:19:44;92018.53;;;9.28;100.00
3250;BME280;1637;42.020;23.992;2023-04-25T02:22:11;92021.97;;;9.48;100.00
3250;BME280;1637;42.020;23.992;2023-04-25T02:24:38;92026.50;;;9.32;100.00
3250;BME280;1637;42.020;23.992;2023-04-25T02:27:05;92020.94;;;9.42;100.00
3250;BME280;1637;42.020;23.992;2023-04-25T02:29:33;92013.94;;;9.48;100.00
3250;BME280;1637;42.020;23.992;2023-04-25T02:32:01;92022.50;;;9.59;100.00
3250;BME280;1637;42.020;23.992;2023-04-25T02:34:28;92026.19;;;9.65;100.00
3250;BME280;1637;42.020;23.992;2023-04-25T02:36:54;92015.94;;;9.44;100.00
3250;BME280;1637;42.020;23.992;2023-04-25T02:39:21;92017.09;;;9.23;100.00
3250;BME280;1637;42.020;23.992;2023-04-25T02:41:51;92023.88;;;9.08;100.00
3250;BME280;1637;42.020;23.992;2023-04-25T02:44:18;92011.25;;;9.09;100.00
3250;BME280;1637;42.020;23.992;2023-04-25T02:46:45;92010.56;;;9.05;100.00
3250;BME280;1637;42.020;23.992;2023-04-25T02:49:13;92017.81;;;9.04;100.00
3250;BME280;1637;42.020;23.992;2023-04-25T02:51:40;92005.91;;;9.09;100.00
3250;BME280;1637;42.020;23.992;2023-04-25T02:54:07;92006.38;;;9.04;100.00
3250;BME280;1637;42.020;23.992;2023-04-25T02:56:34;92007.50;;;9.06;100.00
3250;BME280;1637;42.020;23.992;2023-04-25T02:59:00;92004.94;;;8.99;100.00
3250;BME280;1637;42.020;23.992;2023-04-25T03:01:27;91999.81;;;8.88;100.00
3250;BME280;1637;42.020;23.992;2023-04-25T03:03:54;91994.13;;;8.86;100.00
3250;BME280;1637;42.020;23.992;2023-04-25T03:06:22;91993.41;;;8.82;100.00
3250;BME280;1637;42.020;23.992;2023-04-25T03:08:49;91987.97;;;8.89;100.00
3250;BME280;1637;42.020;23.992;2023-04-25T03:11:16;91996.44;;;8.84;100.00
3250;BME280;1637;42.020;23.992;2023-04-25T03:13:42;91993.38;;;8.86;100.00
3250;BME280;1637;42.020;23.992;2023-04-25T03:16:09;91983.56;;;8.79;100.00
3250;BME280;1637;42.020;23.992;2023-04-25T03:18:36;91990.25;;;8.68;100.00
3250;BME280;1637;42.020;23.992;2023-04-25T03:21:03;91990.91;;;8.52;100.00
3250;BME280;1637;42.020;23.992;2023-04-25T03:23:31;91986.06;;;8.67;100.00
3250;BME280;1637;42.020;23.992;2023-04-25T03:25:58;91986.69;;;8.74;100.00
3250;BME280;1637;42.020;23.992;2023-04-25T03:28:25;91983.97;;;8.54;100.00
3250;BME280;1637;42.020;23.992;2023-04-25T03:30:52;91983.34;;;8.70;100.00
3250;BME280;1637;42.020;23.992;2023-04-25T03:33:19;91975.31;;;8.50;100.00
3250;BME280;1637;42.020;23.992;2023-04-25T03:35:46;91971.16;;;8.69;100.00
3250;BME280;1637;42.020;23.992;2023-04-25T03:38:13;91975.09;;;8.61;100.00
3250;BME280;1637;42.020;23.992;2023-04-25T03:40:41;91975.63;;;8.52;100.00
3250;BME280;1637;42.020;23.992;2023-04-25T03:43:07;91979.75;;;8.57;100.00
3250;BME280;1637;42.020;23.992;2023-04-25T03:45:34;91984.94;;;8.44;100.00
3250;BME280;1637;42.020;23.992;2023-04-25T03:48:01;91989.31;;;8.98;100.00
3250;BME280;1637;42.020;23.992;2023-04-25T03:50:28;91984.25;;;8.83;100.00
3250;BME280;1637;42.020;23.992;2023-04-25T03:52:55;91989.19;;;9.05;100.00
3250;BME280;1637;42.020;23.992;2023-04-25T03:55:22;91984.91;;;9.11;100.00
3250;BME280;1637;42.020;23.992;2023-04-25T03:57:50;91990.78;;;9.22;100.00
3250;BME280;1637;42.020;23.992;2023-04-25T04:00:17;91989.84;;;9.32;100.00
3250;BME280;1637;42.020;23.992;2023-04-25T04:02:44;91980.19;;;9.74;100.00
3250;BME280;1637;42.020;23.992;2023-04-25T04:05:10;91988.22;;;10.59;100.00
3250;BME280;1637;42.020;23.992;2023-04-25T04:07:37;92003.25;;;11.43;100.00
3250;BME280;1637;42.020;23.992;2023-04-25T04:10:06;92000.38;;;11.38;100.00
3250;BME280;1637;42.020;23.992;2023-04-25T04:12:33;92003.44;;;11.07;100.00
3250;BME280;1637;42.020;23.992;2023-04-25T04:15:01;92018.28;;;11.41;100.00
3250;BME280;1637;42.020;23.992;2023-04-25T04:17:29;92018.63;;;11.43;100.00
3250;BME280;1637;42.020;23.992;2023-04-25T04:19:56;92016.25;;;11.86;100.00
3250;BME280;1637;42.020;23.992;2023-04-25T04:22:23;92020.56;;;11.55;100.00
3250;BME280;1637;42.020;23.992;2023-04-25T04:24:50;92026.25;;;11.57;100.00
3250;BME280;1637;42.020;23.992;2023-04-25T04:27:17;92019.75;;;10.35;100.00
3250;BME280;1637;42.020;23.992;2023-04-25T04:29:44;92014.91;;;10.62;100.00
3250;BME280;1637;42.020;23.992;2023-04-25T04:32:13;92013.81;;;10.44;100.00
3250;BME280;1637;42.020;23.992;2023-04-25T04:34:40;92029.47;;;10.78;100.00
3250;BME280;1637;42.020;23.992;2023-04-25T04:37:07;92019.31;;;12.14;100.00
3250;BME280;1637;42.020;23.992;2023-04-25T04:39:35;92018.75;;;13.29;94.47
3250;BME280;1637;42.020;23.992;2023-04-25T04:42:01;92017.53;;;14.49;85.32
3250;BME280;1637;42.020;23.992;2023-04-25T04:44:30;92013.94;;;13.46;89.53
3250;BME280;1637;42.020;23.992;2023-04-25T04:46:59;91980.00;;;12.20;96.31
3250;BME280;1637;42.020;23.992;2023-04-25T04:49:28;92009.75;;;12.25;100.00
3250;BME280;1637;42.020;23.992;2023-04-25T04:51:55;91988.47;;;12.44;98.16
3250;BME280;1637;42.020;23.992;2023-04-25T04:54:22;92014.06;;;12.23;96.98
3250;BME280;1637;42.020;23.992;2023-04-25T04:56:49;92006.44;;;11.67;100.00
3250;BME280;1637;42.020;23.992;2023-04-25T04:59:16;92005.13;;;12.00;100.00
3250;BME280;1637;42.020;23.992;2023-04-25T05:01:43;92003.41;;;12.45;99.45
3250;BME280;1637;42.020;23.992;2023-04-25T05:04:09;91996.88;;;12.46;96.13
3250;BME280;1637;42.020;23.992;2023-04-25T05:06:38;92010.56;;;12.73;98.49
3250;BME280;1637;42.020;23.992;2023-04-25T05:09:05;92009.47;;;13.30;91.87
3250;BME280;1637;42.020;23.992;2023-04-25T05:11:32;92009.97;;;13.38;92.92
3250;BME280;1637;42.020;23.992;2023-04-25T05:13:59;92004.66;;;14.22;87.19
3250;BME280;1637;42.020;23.992;2023-04-25T05:16:26;92006.66;;;14.70;83.39
3250;BME280;1637;42.020;23.992;2023-04-25T05:18:52;91987.66;;;14.74;83.14
3250;BME280;1637;42.020;23.992;2023-04-25T05:21:19;92006.91;;;15.49;78.60
3250;BME280;1637;42.020;23.992;2023-04-25T05:23:47;92009.31;;;15.74;78.08
3250;BME280;1637;42.020;23.992;2023-04-25T05:26:14;91986.50;;;15.30;82.07
3250;BME280;1637;42.020;23.992;2023-04-25T05:28:41;91996.97;;;15.00;82.20
3250;BME280;1637;42.020;23.992;2023-04-25T05:31:09;91953.97;;;13.98;88.94
3250;BME280;1637;42.020;23.992;2023-04-25T05:33:36;92000.16;;;15.17;85.18
3250;BME280;1637;42.020;23.992;2023-04-25T05:36:03;91997.47;;;15.35;80.62
3250;BME280;1637;42.020;23.992;2023-04-25T05:38:30;92000.59;;;15.79;79.51
3250;BME280;1637;42.020;23.992;2023-04-25T05:40:58;92000.38;;;16.10;78.53
3250;BME280;1637;42.020;23.992;2023-04-25T05:43:25;91987.69;;;15.20;86.37
3250;BME280;1637;42.020;23.992;2023-04-25T05:45:52;91989.09;;;14.57;83.14
3250;BME280;1637;42.020;23.992;2023-04-25T05:48:19;91991.25;;;13.78;90.44
3250;BME280;1637;42.020;23.992;2023-04-25T05:50:46;91982.41;;;13.47;94.26
3250;BME280;1637;42.020;23.992;2023-04-25T05:53:13;91977.72;;;14.22;90.88
3250;BME280;1637;42.020;23.992;2023-04-25T05:55:39;91978.69;;;14.06;95.33
3250;BME280;1637;42.020;23.992;2023-04-25T05:58:08;91977.94;;;17.03;81.11
3250;BME280;1637;42.020;23.992;2023-04-25T06:00:34;91983.72;;;17.88;72.20
3250;BME280;1637;42.020;23.992;2023-04-25T06:03:01;91996.69;;;18.72;67.60
3250;BME280;1637;42.020;23.992;2023-04-25T06:05:28;91984.94;;;18.46;67.96
3250;BME280;1637;42.020;23.992;2023-04-25T06:07:55;91982.47;;;17.60;71.84
3250;BME280;1637;42.020;23.992;2023-04-25T06:10:22;91981.13;;;16.69;76.83
3250;BME280;1637;42.020;23.992;2023-04-25T06:12:49;91970.66;;;16.10;79.95
3250;BME280;1637;42.020;23.992;2023-04-25T06:15:17;91969.88;;;15.77;78.25
3250;BME280;1637;42.020;23.992;2023-04-25T06:17:44;91967.03;;;15.62;77.83
3250;BME280;1637;42.020;23.992;2023-04-25T06:20:11;91971.06;;;15.39;77.96
3250;BME280;1637;42.020;23.992;2023-04-25T06:22:38;91974.22;;;15.10;78.37
3250;BME280;1637;42.020;23.992;2023-04-25T06:25:05;91973.31;;;15.59;78.08
3250;BME280;1637;42.020;23.992;2023-04-25T06:27:32;91980.00;;;16.00;73.60
3250;BME280;1637;42.020;23.992;2023-04-25T06:29:59;91963.91;;;16.15;75.28
3250;BME280;1637;42.020;23.992;2023-04-25T06:32:27;91968.72;;;16.44;72.59
3250;BME280;1637;42.020;23.992;2023-04-25T06:34:55;91975.69;;;16.36;73.12
3250;BME280;1637;42.020;23.992;2023-04-25T06:37:22;91980.44;;;16.08;73.42
3250;BME280;1637;42.020;23.992;2023-04-25T06:39:49;91969.88;;;15.50;75.50
3250;BME280;1637;42.020;23.992;2023-04-25T06:42:15;91974.53;;;15.31;74.69
3250;BME280;1637;42.020;23.992;2023-04-25T06:44:42;91970.75;;;14.92;74.67
3250;BME280;1637;42.020;23.992;2023-04-25T06:47:09;91970.44;;;14.99;73.55
3250;BME280;1637;42.020;23.992;2023-04-25T06:49:37;91969.09;;;15.03;72.64
3250;BME280;1637;42.020;23.992;2023-04-25T06:52:04;91963.56;;;14.89;73.01
3250;BME280;1637;42.020;23.992;2023-04-25T06:54:31;91965.50;;;14.97;71.69
3250;BME280;1637;42.020;23.992;2023-04-25T06:56:57;91964.59;;;15.00;72.56
3250;BME280;1637;42.020;23.992;2023-04-25T06:59:26;91969.28;;;15.27;70.78
3250;BME280;1637;42.020;23.992;2023-04-25T07:01:53;91970.16;;;14.97;71.25
3250;BME280;1637;42.020;23.992;2023-04-25T07:04:19;91978.00;;;15.59;71.76
3250;BME280;1637;42.020;23.992;2023-04-25T07:06:48;91980.50;;;15.44;71.73
3250;BME280;1637;42.020;23.992;2023-04-25T07:09:15;91981.91;;;15.58;69.20
3250;BME280;1637;42.020;23.992;2023-04-25T07:11:41;91980.34;;;15.47;70.48
3250;BME280;1637;42.020;23.992;2023-04-25T07:14:08;91974.06;;;15.32;72.55
3250;BME280;1637;42.020;23.992;2023-04-25T07:16:35;91977.38;;;15.55;74.92
3250;BME280;1637;42.020;23.992;2023-04-25T07:19:02;91980.06;;;15.18;78.44
3250;BME280;1637;42.020;23.992;2023-04-25T07:21:29;91985.63;;;15.15;79.21
3250;BME280;1637;42.020;23.992;2023-04-25T07:23:58;91984.09;;;15.04;79.21
3250;BME280;1637;42.020;23.992;2023-04-25T07:26:24;91988.91;;;15.28;78.52
3250;BME280;1637;42.020;23.992;2023-04-25T07:28:51;91994.75;;;15.54;76.03
3250;BME280;1637;42.020;23.992;2023-04-25T07:31:18;91981.06;;;15.94;73.01
3250;BME280;1637;42.020;23.992;2023-04-25T07:33:45;91982.47;;;15.71;69.38
3250;BME280;1637;42.020;23.992;2023-04-25T07:36:12;91980.94;;;15.42;67.73
3250;BME280;1637;42.020;23.992;2023-04-25T07:38:40;91984.69;;;15.08;67.75
3250;BME280;1637;42.020;23.992;2023-04-25T07:41:08;91974.97;;;15.66;67.87
3250;BME280;1637;42.020;23.992;2023-04-25T07:43:35;91981.09;;;15.48;69.72
3250;BME280;1637;42.020;23.992;2023-04-25T07:46:02;91989.28;;;16.08;68.53
3250;BME280;1637;42.020;23.992;2023-04-25T07:48:29;91972.41;;;15.53;65.77
3250;BME280;1637;42.020;23.992;2023-04-25T07:50:55;91986.38;;;15.70;68.20
3250;BME280;1637;42.020;23.992;2023-04-25T07:53:22;91984.91;;;16.20;65.16
3250;BME280;1637;42.020;23.992;2023-04-25T07:55:50;91983.34;;;15.86;65.70
3250;BME280;1637;42.020;23.992;2023-04-25T07:58:18;91987.78;;;16.07;66.61
3250;BME280;1637;42.020;23.992;2023-04-25T08:00:47;91979.69;;;16.49;65.25
3250;BME280;1637;42.020;23.992;2023-04-25T08:03:14;91970.91;;;16.64;63.98
3250;BME280;1637;42.020;23.992;2023-04-25T08:05:40;92024.34;;;17.26;63.40
3250;BME280;1637;42.020;23.992;2023-04-25T08:08:07;91983.22;;;17.22;65.81
3250;BME280;1637;42.020;23.992;2023-04-25T08:10:34;91994.16;;;17.03;65.51
3250;BME280;1637;42.020;23.992;2023-04-25T08:13:01;91998.25;;;16.66;67.23
3250;BME280;1637;42.020;23.992;2023-04-25T08:15:29;92004.78;;;17.07;66.93
3250;BME280;1637;42.020;23.992;2023-04-25T08:17:56;92000.25;;;16.89;63.94
3250;BME280;1637;42.020;23.992;2023-04-25T08:20:23;92006.81;;;17.83;63.12
3250;BME280;1637;42.020;23.992;2023-04-25T08:22:50;92003.91;;;19.31;58.16
3250;BME280;1637;42.020;23.992;2023-04-25T08:25:17;92015.72;;;19.68;59.46
3250;BME280;1637;42.020;23.992;2023-04-25T08:27:43;92008.72;;;20.08;56.32
3250;BME280;1637;42.020;23.992;2023-04-25T08:30:11;92005.22;;;20.28;55.87
3250;BME280;1637;42.020;23.992;2023-04-25T08:32:39;92005.97;;;21.28;53.81
3250;BME280;1637;42.020;23.992;2023-04-25T08:35:06;91997.28;;;19.52;57.11
3250;BME280;1637;42.020;23.992;2023-04-25T08:37:33;91998.47;;;20.23;56.77
3250;BME280;1637;42.020;23.992;2023-04-25T08:40:01;91998.03;;;19.52;56.91
3250;BME280;1637;42.020;23.992;2023-04-25T08:42:33;91988.97;;;19.20;57.74
3250;BME280;1637;42.020;23.992;2023-04-25T08:45:01;91992.72;;;20.41;54.29
3250;BME280;1637;42.020;23.992;2023-04-25T08:47:29;91994.88;;;21.00;52.66
3250;BME280;1637;42.020;23.992;2023-04-25T08:49:58;91992.53;;;21.19;53.49
3250;BME280;1637;42.020;23.992;2023-04-25T08:52:28;91984.31;;;19.87;54.70
3250;BME280;1637;42.020;23.992;2023-04-25T08:54:57;91975.66;;;20.41;54.03
3250;BME280;1637;42.020;23.992;2023-04-25T08:57:24;91972.97;;;21.20;50.76
3250;BME280;1637;42.020;23.992;2023-04-25T08:59:51;91976.75;;;22.05;48.65
3250;BME280;1637;42.020;23.992;2023-04-25T09:02:19;91966.00;;;21.14;49.58
3250;BME280;1637;42.020;23.992;2023-04-25T09:04:46;91966.75;;;20.72;50.13
3250;BME280;1637;42.020;23.992;2023-04-25T09:07:15;91963.56;;;21.75;51.05
3250;BME280;1637;42.020;23.992;2023-04-25T09:09:46;91964.75;;;21.57;49.99
3250;BME280;1637;42.020;23.992;2023-04-25T09:12:13;91960.91;;;19.96;52.74
3250;BME280;1637;42.020;23.992;2023-04-25T09:14:40;91970.88;;;19.78;51.93
3250;BME280;1637;42.020;23.992;2023-04-25T09:17:07;91965.97;;;19.82;52.85
3250;BME280;1637;42.020;23.992;2023-04-25T09:19:35;91951.84;;;19.78;49.11
3250;BME280;1637;42.020;23.992;2023-04-25T09:22:05;91956.78;;;19.74;49.42
3250;BME280;1637;42.020;23.992;2023-04-25T09:24:35;91957.56;;;20.06;50.17
3250;BME280;1637;42.020;23.992;2023-04-25T09:27:06;91956.19;;;19.90;49.40
3250;BME280;1637;42.020;23.992;2023-04-25T09:29:35;91951.84;;;19.32;49.59
3250;BME280;1637;42.020;23.992;2023-04-25T09:32:17;91958.81;;;19.59;50.47
3250;BME280;1637;42.020;23.992;2023-04-25T09:34:45;91950.41;;;19.16;50.28
3250;BME280;1637;42.020;23.992;2023-04-25T09:37:17;91945.53;;;19.20;51.43
3250;BME280;1637;42.020;23.992;2023-04-25T09:39:46;91943.50;;;18.60;51.37
3250;BME280;1637;42.020;23.992;2023-04-25T09:42:14;91939.06;;;19.38;49.27
3250;BME280;1637;42.020;23.992;2023-04-25T09:44:43;91942.91;;;19.98;47.79
3250;BME280;1637;42.020;23.992;2023-04-25T09:47:10;91947.97;;;20.42;46.83
3250;BME280;1637;42.020;23.992;2023-04-25T09:49:39;91904.63;;;21.18;45.52
3250;BME280;1637;42.020;23.992;2023-04-25T09:52:08;91936.94;;;21.37;43.37
3250;BME280;1637;42.020;23.992;2023-04-25T09:54:35;91880.31;;;18.74;48.75
3250;BME280;1637;42.020;23.992;2023-04-25T09:57:10;91913.84;;;19.12;49.63
3250;BME280;1637;42.020;23.992;2023-04-25T09:59:39;91912.59;;;19.53;46.98
3250;BME280;1637;42.020;23.992;2023-04-25T10:02:07;91913.56;;;19.10;48.59
3250;BME280;1637;42.020;23.992;2023-04-25T10:04:35;91922.72;;;18.92;48.85
3250;BME280;1637;42.020;23.992;2023-04-25T10:07:05;91903.66;;;18.66;48.23
3250;BME280;1637;42.020;23.992;2023-04-25T10:09:33;91890.13;;;18.02;49.61
3250;BME280;1637;42.020;23.992;2023-04-25T10:12:03;91883.09;;;18.80;47.87
3250;BME280;1637;42.020;23.992;2023-04-25T10:14:31;91896.00;;;19.77;46.82
3250;BME280;1637;42.020;23.992;2023-04-25T10:16:58;91881.44;;;19.29;48.10
3250;BME280;1637;42.020;23.992;2023-04-25T10:19:25;91878.53;;;19.32;48.27
3250;BME280;1637;42.020;23.992;2023-04-25T10:21:55;91881.25;;;18.92;44.68
3250;BME280;1637;42.020;23.992;2023-04-25T10:24:25;91874.50;;;19.48;49.85
3250;BME280;1637;42.020;23.992;2023-04-25T10:26:52;91866.81;;;18.60;48.06
3250;BME280;1637;42.020;23.992;2023-04-25T10:29:24;91863.63;;;19.02;47.02
3250;BME280;1637;42.020;23.992;2023-04-25T10:31:52;91860.78;;;20.20;43.23
3250;BME280;1637;42.020;23.992;2023-04-25T10:34:19;91878.75;;;20.86;42.96
3250;BME280;1637;42.020;23.992;2023-04-25T10:36:50;91864.59;;;20.02;41.29
3250;BME280;1637;42.020;23.992;2023-04-25T10:39:22;91859.91;;;20.77;44.44
3250;BME280;1637;42.020;23.992;2023-04-25T10:41:53;91856.97;;;20.86;42.02
3250;BME280;1637;42.020;23.992;2023-04-25T10:44:21;91857.91;;;20.72;43.13
3250;BME280;1637;42.020;23.992;2023-04-25T10:46:50;91857.16;;;21.31;41.42
3250;BME280;1637;42.020;23.992;2023-04-25T10:49:32;91856.25;;;21.95;40.44
3250;BME280;1637;42.020;23.992;2023-04-25T10:52:26;91856.22;;;21.67;42.53
3250;BME280;1637;42.020;23.992;2023-04-25T10:54:54;91852.66;;;21.16;41.03
3250;BME280;1637;42.020;23.992;2023-04-25T10:57:31;91844.41;;;21.00;40.17
3250;BME280;1637;42.020;23.992;2023-04-25T11:00:06;91837.94;;;20.91;39.26
3250;BME280;1637;42.020;23.992;2023-04-25T11:02:40;91831.81;;;20.17;41.78
3250;BME280;1637;42.020;23.992;2023-04-25T11:05:08;91845.50;;;20.28;41.19
3250;BME280;1637;42.020;23.992;2023-04-25T11:07:39;91846.72;;;19.90;41.34
3250;BME280;1637;42.020;23.992;2023-04-25T11:10:10;91842.31;;;19.93;43.23
3250;BME280;1637;42.020;23.992;2023-04-25T11:12:36;91845.47;;;20.22;41.68
3250;BME280;1637;42.020;23.992;2023-04-25T11:15:04;91832.47;;;20.86;41.33
3250;BME280;1637;42.020;23.992;2023-04-25T11:17:32;91833.53;;;20.46;41.54
3250;BME280;1637;42.020;23.992;2023-04-25T11:20:01;91836.81;;;20.61;41.42
3250;BME280;1637;42.020;23.992;2023-04-25T11:22:31;91830.13;;;20.56;40.96
3250;BME280;1637;42.020;23.992;2023-04-25T11:25:00;91828.72;;;21.37;40.70
3250;BME280;1637;42.020;23.992;2023-04-25T11:27:31;91836.16;;;21.48;40.98
3250;BME280;1637;42.020;23.992;2023-04-25T11:29:57;91830.47;;;21.51;38.90
3250;BME280;1637;42.020;23.992;2023-04-25T11:32:24;91827.00;;;22.29;38.61
3250;BME280;1637;42.020;23.992;2023-04-25T11:34:52;91825.50;;;21.50;38.73
3250;BME280;1637;42.020;23.992;2023-04-25T11:37:21;91817.66;;;20.92;39.59
3250;BME280;1637;42.020;23.992;2023-04-25T11:39:48;91815.50;;;20.48;39.43
3250;BME280;1637;42.020;23.992;2023-04-25T11:42:14;91814.97;;;20.44;37.67
3250;BME280;1637;42.020;23.992;2023-04-25T11:44:41;91812.31;;;20.18;40.16
3250;BME280;1637;42.020;23.992;2023-04-25T11:47:08;91809.84;;;20.15;39.92
3250;BME280;1637;42.020;23.992;2023-04-25T11:49:35;91806.50;;;20.00;40.98
3250;BME280;1637;42.020;23.992;2023-04-25T11:52:02;91816.94;;;19.75;41.86
3250;BME280;1637;42.020;23.992;2023-04-25T11:54:30;91822.06;;;19.16;44.40
3250;BME280;1637;42.020;23.992;2023-04-25T11:56:57;91822.41;;;19.23;46.89
3250;BME280;1637;42.020;23.992;2023-04-25T11:59:25;91839.53;;;19.35;44.49
3250;BME280;1637;42.020;23.992;2023-04-25T12:01:52;91832.94;;;18.70;47.71
3250;BME280;1637;42.020;23.992;2023-04-25T12:04:20;91824.63;;;17.89;50.65
3250;BME280;1637;42.020;23.992;2023-04-25T12:06:48;91830.56;;;17.72;52.88
3250;BME280;1637;42.020;23.992;2023-04-25T12:09:17;91826.25;;;17.36;53.86
3250;BME280;1637;42.020;23.992;2023-04-25T12:11:47;91821.75;;;17.48;54.35
3250;BME280;1637;42.020;23.992;2023-04-25T12:14:21;91826.72;;;17.20;55.56
3250;BME280;1637;42.020;23.992;2023-04-25T12:16:50;91818.41;;;17.53;55.29
3250;BME280;1637;42.020;23.992;2023-04-25T12:19:18;91814.69;;;17.80;54.37
3250;BME280;1637;42.020;23.992;2023-04-25T12:21:45;91818.06;;;18.65;51.01
3250;BME280;1637;42.020;23.992;2023-04-25T12:24:14;91809.81;;;19.00;50.18
3250;BME280;1637;42.020;23.992;2023-04-25T12:26:53;91812.84;;;18.82;50.21
3250;BME280;1637;42.020;23.992;2023-04-25T12:29:21;91813.78;;;18.79;50.90
3250;BME280;1637;42.020;23.992;2023-04-25T12:31:48;91802.75;;;19.08;49.68
3250;BME280;1637;42.020;23.992;2023-04-25T12:34:15;91819.59;;;19.64;49.34
3250;BME280;1637;42.020;23.992;2023-04-25T12:36:42;91815.25;;;19.78;47.85
3250;BME280;1637;42.020;23.992;2023-04-25T12:39:14;91791.69;;;19.38;47.42
3250;BME280;1637;42.020;23.992;2023-04-25T12:41:41;91817.47;;;19.79;47.10
3250;BME280;1637;42.020;23.992;2023-04-25T12:44:09;91816.09;;;19.89;47.56
3250;BME280;1637;42.020;23.992;2023-04-25T12:46:36;91817.97;;;19.78;47.34
3250;BME280;1637;42.020;23.992;2023-04-25T12:49:03;91806.22;;;19.92;46.05
3250;BME280;1637;42.020;23.992;2023-04-25T12:51:31;91798.25;;;19.83;46.88
3250;BME280;1637;42.020;23.992;2023-04-25T12:53:58;91795.25;;;19.81;47.18
3250;BME280;1637;42.020;23.992;2023-04-25T12:56:25;91793.88;;;19.60;46.61
3250;BME280;1637;42.020;23.992;2023-04-25T12:58:52;91801.19;;;20.16;46.85
3250;BME280;1637;42.020;23.992;2023-04-25T13:01:21;91785.72;;;19.97;44.37
3250;BME280;1637;42.020;23.992;2023-04-25T13:03:48;91787.88;;;20.24;43.30
3250;BME280;1637;42.020;23.992;2023-04-25T13:06:15;91786.84;;;20.58;44.40
3250;BME280;1637;42.020;23.992;2023-04-25T13:08:42;91786.06;;;20.47;42.97
3250;BME280;1637;42.020;23.992;2023-04-25T13:11:09;91761.97;;;20.29;42.91
3250;BME280;1637;42.020;23.992;2023-04-25T13:13:37;91775.84;;;20.36;42.72